createdAt,value
2023-05-01T00:01:00.176Z,99852.94
2023-05-01T00:03:27.596Z,99851.06
2023-05-01T00:06:07.944Z,99849.22
2023-05-01T00:08:35.165Z,99849.22
2023-05-01T00:11:09.851Z,99851.78
2023-05-01T00:13:37.583Z,99840.44
2023-05-01T00:16:12.685Z,99850.09
2023-05-01T00:18:40.000Z,99849.22
2023-05-01T00:21:07.139Z,99844.00
2023-05-01T00:23:34.308Z,99849.28
2023-05-01T00:26:01.504Z,99847.47
2023-05-01T00:28:29.138Z,99847.66
2023-05-01T00:30:57.776Z,99850.06
2023-05-01T00:33:24.889Z,99853.47
2023-05-01T00:35:52.802Z,99845.47
2023-05-01T00:38:19.960Z,99840.09
2023-05-01T00:40:47.652Z,99841.81
2023-05-01T00:43:14.879Z,99840.09
2023-05-01T00:45:46.366Z,99836.66
2023-05-01T00:48:14.950Z,99842.78
2023-05-01T00:50:44.279Z,99836.56
2023-05-01T00:53:12.345Z,99840.78
2023-05-01T00:55:42.957Z,99840.81
2023-05-01T00:58:14.150Z,99836.38
2023-05-01T01:00:41.472Z,99836.41
2023-05-01T01:03:08.924Z,99825.94
2023-05-01T01:05:53.856Z,99822.44
2023-05-01T01:08:34.395Z,99830.28
2023-05-01T01:11:21.719Z,99819.75
2023-05-01T01:14:32.956Z,99822.25
2023-05-01T01:17:38.773Z,99822.16
2023-05-01T01:20:32.378Z,99828.47
2023-05-01T01:23:48.213Z,99822.97
2023-05-01T01:27:20.475Z,99827.16
2023-05-01T01:30:23.636Z,99826.19
2023-05-01T01:34:24.893Z,99824.44
2023-05-01T01:37:18.928Z,99819.03
2023-05-01T01:39:55.406Z,99813.84
2023-05-01T01:42:31.675Z,99819.97
2023-05-01T01:45:30.424Z,99820.03
2023-05-01T01:47:58.983Z,99821.78
2023-05-01T01:50:28.474Z,99816.53
2023-05-01T01:53:00.535Z,99809.47
2023-05-01T01:55:31.664Z,99812.94
2023-05-01T01:58:00.060Z,99811.06
2023-05-01T02:00:28.467Z,99818.03
2023-05-01T02:02:59.101Z,99810.97
2023-05-01T02:05:27.130Z,99819.72
2023-05-01T02:07:56.468Z,99809.97
2023-05-01T02:10:24.576Z,99809.88
2023-05-01T02:12:53.274Z,99815.97
2023-05-01T02:15:22.499Z,99812.47
2023-05-01T02:17:52.616Z,99809.06
2023-05-01T02:20:22.088Z,99811.59
2023-05-01T02:22:52.580Z,99806.38
2023-05-01T02:25:19.943Z,99809.69
2023-05-01T02:28:02.010Z,99807.81
2023-05-01T02:30:29.660Z,99814.75
2023-05-01T02:32:57.794Z,99803.50
2023-05-01T02:35:25.123Z,99816.56
2023-05-01T02:37:52.450Z,99813.91
2023-05-01T02:40:19.922Z,99819.16
2023-05-01T02:42:49.747Z,99811.22
2023-05-01T02:45:23.749Z,99823.56
2023-05-01T02:47:56.431Z,99824.53
2023-05-01T02:50:25.110Z,99821.78
2023-05-01T02:52:52.516Z,99818.88
2023-05-01T02:55:31.355Z,99818.97
2023-05-01T02:57:59.874Z,99804.00
2023-05-01T03:00:27.953Z,99811.03
2023-05-01T03:02:55.347Z,99814.38
2023-05-01T03:05:22.973Z,99808.28
2023-05-01T03:07:51.142Z,99813.59
2023-05-01T03:10:18.548Z,99815.31
2023-05-01T03:12:45.901Z,99821.34
2023-05-01T03:15:13.259Z,99821.19
2023-05-01T03:17:40.453Z,99827.38
2023-05-01T03:20:10.779Z,99821.34
2023-05-01T03:22:37.960Z,99812.50
2023-05-01T03:25:05.892Z,99822.13
2023-05-01T03:27:33.107Z,99826.66
2023-05-01T03:30:00.264Z,99823.22
2023-05-01T03:32:29.473Z,99820.63
2023-05-01T03:34:57.271Z,99831.16
2023-05-01T03:37:25.860Z,99832.06
2023-05-01T03:39:53.998Z,99826.81
2023-05-01T03:42:40.383Z,99827.69
2023-05-01T03:45:14.967Z,99830.25
2023-05-01T03:47:42.355Z,99824.06
2023-05-01T03:50:10.560Z,99831.94
2023-05-01T03:52:40.765Z,99835.38
2023-05-01T03:55:08.845Z,99824.75
2023-05-01T03:57:40.976Z,99833.50
2023-05-01T04:00:10.948Z,99832.53
2023-05-01T04:02:45.785Z,99831.72
2023-05-01T04:05:18.227Z,99829.09
2023-05-01T04:07:51.679Z,99832.53
2023-05-01T04:10:18.985Z,99822.88
2023-05-01T04:12:55.309Z,99822.13
2023-05-01T04:15:22.620Z,99825.00
2023-05-01T04:17:50.269Z,99821.53
2023-05-01T04:20:19.422Z,99825.00
2023-05-01T04:22:47.697Z,99832.03
2023-05-01T04:25:14.927Z,99837.28
2023-05-01T04:27:42.599Z,99831.16
2023-05-01T04:30:10.690Z,99836.34
2023-05-01T04:32:38.844Z,99836.22
2023-05-01T04:35:07.011Z,99839.72
2023-05-01T04:37:35.678Z,99844.88
2023-05-01T04:40:04.343Z,99836.22
2023-05-01T04:42:34.346Z,99835.38
2023-05-01T04:45:04.041Z,99840.63
2023-05-01T04:47:34.912Z,99841.41
2023-05-01T04:50:02.216Z,99848.34
2023-05-01T04:52:30.827Z,99850.91
2023-05-01T04:55:00.377Z,99844.69
2023-05-01T04:57:30.541Z,99858.59
2023-05-01T05:00:00.414Z,99856.97
2023-05-01T05:02:27.957Z,99857.19
2023-05-01T05:04:56.347Z,99855.31
2023-05-01T05:07:23.773Z,99858.66
2023-05-01T05:10:09.962Z,99862.28
2023-05-01T05:12:37.723Z,99866.84
2023-05-01T05:15:06.578Z,99866.03
2023-05-01T05:17:33.867Z,99868.75
2023-05-01T05:20:01.112Z,99873.16
2023-05-01T05:22:28.321Z,99875.06
2023-05-01T05:25:31.118Z,99871.69
2023-05-01T05:27:59.671Z,99866.44
2023-05-01T05:30:27.813Z,99873.41
2023-05-01T05:32:55.378Z,99873.53
2023-05-01T05:35:26.179Z,99876.16
2023-05-01T05:37:54.577Z,99878.84
2023-05-01T05:40:21.751Z,99878.84
2023-05-01T05:42:57.226Z,99871.78
2023-05-01T05:45:26.521Z,99872.56
2023-05-01T05:47:53.834Z,99871.78
2023-05-01T05:50:21.106Z,99875.41
2023-05-01T05:52:48.614Z,99866.72
2023-05-01T05:55:15.889Z,99871.19
2023-05-01T05:57:52.833Z,99867.78
2023-05-01T06:00:20.199Z,99873.22
2023-05-01T06:02:50.196Z,99875.94
2023-05-01T06:05:19.619Z,99873.41
2023-05-01T06:07:47.082Z,99875.25
2023-05-01T06:10:14.199Z,99880.56
2023-05-01T06:12:41.715Z,99878.00
2023-05-01T06:15:16.845Z,99874.69
2023-05-01T06:17:49.059Z,99875.66
2023-05-01T06:20:16.508Z,99882.84
2023-05-01T06:22:43.830Z,99883.78
2023-05-01T06:25:29.053Z,99879.66
2023-05-01T06:27:56.207Z,99884.25
2023-05-01T06:30:24.319Z,99884.25
2023-05-01T06:32:51.599Z,99887.13
2023-05-01T06:35:20.915Z,99890.97
2023-05-01T06:37:48.136Z,99890.28
2023-05-01T06:40:15.357Z,99896.47
2023-05-01T06:42:43.037Z,99896.34
2023-05-01T06:45:10.295Z,99900.81
2023-05-01T06:47:37.450Z,99896.56
2023-05-01T06:50:05.863Z,99901.19
2023-05-01T06:52:33.961Z,99908.31
2023-05-01T06:55:01.296Z,99909.41
2023-05-01T06:57:28.481Z,99901.41
2023-05-01T06:59:56.367Z,99904.81
2023-05-01T07:02:23.881Z,99903.13
2023-05-01T07:04:51.103Z,99908.41
2023-05-01T07:07:18.282Z,99895.09
2023-05-01T07:09:45.514Z,99901.09
2023-05-01T07:12:12.660Z,99903.94
2023-05-01T07:14:41.430Z,99897.78
2023-05-01T07:17:09.218Z,99891.47
2023-05-01T07:19:36.376Z,99888.91
2023-05-01T07:22:04.676Z,99887.41
2023-05-01T07:24:31.697Z,99884.16
2023-05-01T07:26:59.963Z,99889.59
2023-05-01T07:29:27.110Z,99881.56
2023-05-01T07:31:54.527Z,99879.00
2023-05-01T07:34:21.793Z,99881.78
2023-05-01T07:36:49.014Z,99881.13
2023-05-01T07:39:17.576Z,99881.19
2023-05-01T07:41:44.769Z,99885.69
2023-05-01T07:44:11.927Z,99885.03
2023-05-01T07:46:39.104Z,99887.13
2023-05-01T07:49:06.550Z,99883.84
2023-05-01T07:51:33.725Z,99889.66
2023-05-01T07:54:04.482Z,99890.00
2023-05-01T07:56:31.936Z,99883.22
2023-05-01T07:58:59.089Z,99886.25
2023-05-01T08:01:26.823Z,99877.94
2023-05-01T08:03:54.089Z,99888.56
2023-05-01T08:06:21.465Z,99882.53
2023-05-01T08:08:48.647Z,99887.44
2023-05-01T08:11:16.434Z,99891.44
2023-05-01T08:13:43.576Z,99900.53
2023-05-01T08:16:10.799Z,99891.56
2023-05-01T08:18:38.056Z,99897.97
2023-05-01T08:21:05.271Z,99892.75
2023-05-01T08:23:32.810Z,99885.94
2023-05-01T08:26:00.013Z,99895.72
2023-05-01T08:28:27.184Z,99892.47
2023-05-01T08:30:54.356Z,99893.44
2023-05-01T08:33:21.656Z,99891.84
2023-05-01T08:35:49.322Z,99892.25
2023-05-01T08:38:16.840Z,99889.06
2023-05-01T08:40:53.880Z,99893.50
2023-05-01T08:43:21.387Z,99890.47
2023-05-01T08:45:49.742Z,99888.81
2023-05-01T08:48:20.599Z,99894.31
2023-05-01T08:50:48.721Z,99883.78
2023-05-01T08:53:19.083Z,99891.19
2023-05-01T08:55:47.771Z,99894.97
2023-05-01T08:58:17.845Z,99892.41
2023-05-01T09:00:46.951Z,99893.38
2023-05-01T09:03:14.696Z,99893.41
2023-05-01T09:05:42.408Z,99886.25
2023-05-01T09:08:09.542Z,99886.50
2023-05-01T09:10:46.033Z,99882.97
2023-05-01T09:13:13.218Z,99886.63
2023-05-01T09:15:40.502Z,99884.81
2023-05-01T09:18:09.197Z,99893.09
2023-05-01T09:20:37.766Z,99892.44
2023-05-01T09:23:05.111Z,99896.69
2023-05-01T09:25:32.346Z,99887.88
2023-05-01T09:27:59.462Z,99890.16
2023-05-01T09:30:38.478Z,99895.53
2023-05-01T09:33:14.891Z,99890.16
2023-05-01T09:35:57.209Z,99895.75
2023-05-01T09:38:27.266Z,99891.56
2023-05-01T09:41:06.031Z,99890.41
2023-05-01T09:43:33.912Z,99892.72
2023-05-01T09:46:10.517Z,99895.13
2023-05-01T09:48:38.765Z,99894.19
2023-05-01T09:51:29.060Z,99889.16
2023-05-01T09:54:00.420Z,99902.06
2023-05-01T09:56:31.762Z,99891.38
2023-05-01T09:59:20.006Z,99885.44
2023-05-01T10:01:50.046Z,99887.28
2023-05-01T10:04:18.124Z,99890.81
2023-05-01T10:06:45.656Z,99888.81
2023-05-01T10:09:29.137Z,99886.97
2023-05-01T10:11:57.737Z,99888.91
2023-05-01T10:14:26.929Z,99883.84
2023-05-01T10:16:56.623Z,99889.56
2023-05-01T10:19:23.908Z,99885.25
2023-05-01T10:21:51.204Z,99890.53
2023-05-01T10:24:18.674Z,99892.25
2023-05-01T10:26:50.516Z,99881.38
2023-05-01T10:29:21.044Z,99893.09
2023-05-01T10:31:48.321Z,99890.22
2023-05-01T10:34:20.006Z,99886.91
2023-05-01T10:36:57.912Z,99884.38
2023-05-01T10:39:34.574Z,99891.38
2023-05-01T10:42:13.978Z,99889.41
2023-05-01T10:44:42.716Z,99880.72
2023-05-01T10:47:27.781Z,99882.16
2023-05-01T10:50:15.974Z,99877.22
2023-05-01T10:53:16.547Z,99885.81
2023-05-01T10:55:46.729Z,99882.41
2023-05-01T10:58:38.483Z,99882.19
2023-05-01T11:01:29.999Z,99872.91
2023-05-01T11:04:09.712Z,99874.72
2023-05-01T11:06:40.144Z,99867.31
2023-05-01T11:09:57.397Z,99868.44
2023-05-01T11:12:46.306Z,99863.63
2023-05-01T11:15:27.053Z,99871.03
2023-05-01T11:17:55.780Z,99868.09
2023-05-01T11:20:25.856Z,99860.13
2023-05-01T11:22:55.770Z,99863.19
2023-05-01T11:25:27.601Z,99868.66
2023-05-01T11:28:03.894Z,99874.16
2023-05-01T11:30:41.206Z,99862.50
2023-05-01T11:33:10.524Z,99869.72
2023-05-01T11:35:38.448Z,99860.28
2023-05-01T11:38:05.607Z,99854.13
2023-05-01T11:40:36.632Z,99857.91
2023-05-01T11:43:09.045Z,99857.13
2023-05-01T11:45:38.029Z,99850.72
2023-05-01T11:48:14.527Z,99859.09
2023-05-01T11:50:41.817Z,99848.41
2023-05-01T11:53:18.526Z,99848.75
2023-05-01T11:55:45.930Z,99845.16
2023-05-01T11:58:13.296Z,99846.66
2023-05-01T12:00:43.192Z,99838.28
2023-05-01T12:03:14.904Z,99835.13
2023-05-01T12:05:45.199Z,99841.50
2023-05-01T12:08:20.681Z,99833.63
2023-05-01T12:10:57.800Z,99830.28
2023-05-01T12:13:26.953Z,99828.75
2023-05-01T12:15:56.185Z,99824.44
2023-05-01T12:18:23.671Z,99822.50
2023-05-01T12:20:54.601Z,99827.72
2023-05-01T12:23:37.220Z,99827.53
2023-05-01T12:26:23.510Z,99823.88
2023-05-01T12:29:04.731Z,99821.31
2023-05-01T12:31:32.194Z,99820.06
2023-05-01T12:34:07.659Z,99820.28
2023-05-01T12:36:37.097Z,99816.66
2023-05-01T12:39:09.091Z,99820.03
2023-05-01T12:41:46.063Z,99822.72
2023-05-01T12:44:26.578Z,99820.06
2023-05-01T12:47:12.975Z,99820.94
2023-05-01T12:49:41.446Z,99814.59
2023-05-01T12:52:09.421Z,99819.78
2023-05-01T12:54:40.550Z,99811.06
2023-05-01T12:57:14.994Z,99815.63
2023-05-01T12:59:47.228Z,99814.78
2023-05-01T13:02:17.875Z,99814.25
2023-05-01T13:04:48.923Z,99818.03
2023-05-01T13:07:19.173Z,99809.84
2023-05-01T13:09:59.331Z,99807.31
2023-05-01T13:12:28.677Z,99807.78
2023-05-01T13:14:56.874Z,99794.81
2023-05-01T13:17:26.051Z,99796.56
2023-05-01T13:20:03.959Z,99799.00
2023-05-01T13:22:40.507Z,99796.09
2023-05-01T13:25:22.455Z,99793.47
2023-05-01T13:27:54.022Z,99792.44
2023-05-01T13:30:33.289Z,99788.94
2023-05-01T13:33:01.827Z,99794.94
2023-05-01T13:35:29.306Z,99793.34
2023-05-01T13:37:56.867Z,99792.53
2023-05-01T13:40:26.066Z,99776.78
2023-05-01T13:42:54.025Z,99776.22
2023-05-01T13:45:21.508Z,99771.84
2023-05-01T13:47:51.838Z,99769.06
2023-05-01T13:50:19.270Z,99767.22
2023-05-01T13:52:46.633Z,99777.53
2023-05-01T13:55:14.671Z,99778.22
2023-05-01T13:57:43.181Z,99771.00
2023-05-01T14:00:19.414Z,99768.69
2023-05-01T14:02:49.198Z,99764.59
2023-05-01T14:05:30.376Z,99758.56
2023-05-01T14:07:58.816Z,99762.06
2023-05-01T14:10:29.577Z,99758.34
2023-05-01T14:12:58.957Z,99754.84
2023-05-01T14:15:28.658Z,99754.06
2023-05-01T14:17:55.919Z,99748.75
2023-05-01T14:20:25.700Z,99750.38
2023-05-01T14:22:53.391Z,99753.22
2023-05-01T14:25:37.397Z,99744.34
2023-05-01T14:28:08.195Z,99748.94
2023-05-01T14:30:38.904Z,99743.75
2023-05-01T14:33:11.125Z,99752.63
2023-05-01T14:35:52.790Z,99745.75
2023-05-01T14:38:25.914Z,99757.19
2023-05-01T14:40:53.122Z,99754.50
2023-05-01T14:43:23.405Z,99749.84
2023-05-01T14:45:50.765Z,99755.53
2023-05-01T14:48:26.680Z,99759.38
2023-05-01T14:50:59.273Z,99761.09
2023-05-01T14:53:31.951Z,99764.50
2023-05-01T14:55:59.108Z,99757.28
2023-05-01T14:58:26.228Z,99756.31
2023-05-01T15:00:53.425Z,99750.56
2023-05-01T15:03:20.676Z,99754.81
2023-05-01T15:05:47.916Z,99752.84
2023-05-01T15:08:15.096Z,99752.78
2023-05-01T15:10:43.524Z,99750.00
2023-05-01T15:13:10.816Z,99750.59
2023-05-01T15:15:38.027Z,99759.34
2023-05-01T15:18:05.564Z,99755.84
2023-05-01T15:20:34.255Z,99754.13
2023-05-01T15:23:01.391Z,99759.47
2023-05-01T15:25:29.978Z,99765.59
2023-05-01T15:27:57.392Z,99761.31
2023-05-01T15:30:25.056Z,99763.03
2023-05-01T15:32:52.744Z,99761.31
2023-05-01T15:35:21.395Z,99764.81
2023-05-01T15:37:50.550Z,99765.03
2023-05-01T15:40:18.087Z,99769.28
2023-05-01T15:42:47.925Z,99762.19
2023-05-01T15:45:15.146Z,99764.91
2023-05-01T15:47:42.420Z,99764.00
2023-05-01T15:50:11.904Z,99765.75
2023-05-01T15:52:39.511Z,99764.59
2023-05-01T15:55:07.448Z,99769.72
2023-05-01T15:57:35.811Z,99766.25
2023-05-01T16:00:04.512Z,99768.59
2023-05-01T16:02:32.717Z,99776.59
2023-05-01T16:05:00.589Z,99773.78
2023-05-01T16:07:29.806Z,99772.13
2023-05-01T16:10:00.251Z,99776.63
2023-05-01T16:12:28.874Z,99773.00
2023-05-01T16:14:56.519Z,99778.06
2023-05-01T16:17:23.708Z,99772.59
2023-05-01T16:19:52.540Z,99772.53
2023-05-01T16:22:21.209Z,99774.34
2023-05-01T16:24:48.472Z,99776.22
2023-05-01T16:27:18.527Z,99774.09
2023-05-01T16:29:45.874Z,99775.97
2023-05-01T16:32:14.484Z,99775.03
2023-05-01T16:34:43.447Z,99775.03
2023-05-01T16:37:15.102Z,99773.19
2023-05-01T16:39:42.400Z,99775.56
2023-05-01T16:42:13.196Z,99781.50
2023-05-01T16:44:40.598Z,99782.34
2023-05-01T16:47:12.642Z,99784.84
2023-05-01T16:49:44.412Z,99776.41
2023-05-01T16:52:14.322Z,99785.59
2023-05-01T16:54:41.554Z,99791.69
2023-05-01T16:57:08.748Z,99790.94
2023-05-01T16:59:37.492Z,99790.00
2023-05-01T17:02:05.901Z,99785.88
2023-05-01T17:04:33.512Z,99799.94
2023-05-01T17:07:00.881Z,99795.59
2023-05-01T17:09:28.095Z,99806.06
2023-05-01T17:11:56.818Z,99805.06
2023-05-01T17:14:24.524Z,99805.81
2023-05-01T17:16:53.226Z,99805.66
2023-05-01T17:19:20.713Z,99808.25
2023-05-01T17:21:47.854Z,99803.78
2023-05-01T17:24:15.132Z,99801.84
2023-05-01T17:26:42.302Z,99814.13
2023-05-01T17:29:09.491Z,99808.91
2023-05-01T17:31:36.711Z,99813.25
2023-05-01T17:34:03.922Z,99819.88
2023-05-01T17:36:32.122Z,99819.81
2023-05-01T17:39:01.301Z,99820.53
2023-05-01T17:41:28.680Z,99823.31
2023-05-01T17:43:55.875Z,99831.84
2023-05-01T17:46:23.096Z,99832.44
2023-05-01T17:48:50.244Z,99831.91
2023-05-01T17:51:18.081Z,99834.41
2023-05-01T17:53:45.985Z,99829.97
2023-05-01T17:56:13.131Z,99833.63
2023-05-01T17:58:40.959Z,99843.06
2023-05-01T18:01:08.525Z,99849.59
2023-05-01T18:03:35.824Z,99857.16
2023-05-01T18:06:04.257Z,99857.94
2023-05-01T18:08:31.612Z,99857.84
2023-05-01T18:10:58.803Z,99869.34
2023-05-01T18:13:28.460Z,99869.41
2023-05-01T18:15:56.409Z,99870.22
2023-05-01T18:18:24.006Z,99869.25
2023-05-01T18:20:51.726Z,99877.97
2023-05-01T18:23:19.080Z,99871.03
2023-05-01T18:25:46.346Z,99864.91
2023-05-01T18:28:16.242Z,99875.25
2023-05-01T18:30:43.675Z,99871.94
2023-05-01T18:33:11.439Z,99869.41
2023-05-01T18:35:42.352Z,99875.53
2023-05-01T18:38:12.800Z,99873.78
2023-05-01T18:40:40.014Z,99870.22
2023-05-01T18:43:07.211Z,99870.28
2023-05-01T18:45:34.354Z,99880.50
2023-05-01T18:48:01.578Z,99889.31
2023-05-01T18:50:28.785Z,99891.25
2023-05-01T18:52:55.908Z,99884.31
2023-05-01T18:55:23.130Z,99889.38
2023-05-01T18:57:50.384Z,99884.19
2023-05-01T19:00:18.048Z,99891.19
2023-05-01T19:02:51.201Z,99887.50
2023-05-01T19:05:18.790Z,99898.69
2023-05-01T19:07:46.446Z,99892.75
2023-05-01T19:10:14.321Z,99898.13
2023-05-01T19:12:42.017Z,99897.00
2023-05-01T19:15:10.264Z,99904.66
2023-05-01T19:17:37.710Z,99898.53
2023-05-01T19:20:06.189Z,99896.84
2023-05-01T19:22:33.266Z,99897.81
2023-05-01T19:25:00.472Z,99907.00
2023-05-01T19:27:27.682Z,99907.50
2023-05-01T19:29:54.960Z,99905.91
2023-05-01T19:32:23.225Z,99908.44
2023-05-01T19:34:50.682Z,99906.59
2023-05-01T19:37:17.897Z,99907.25
2023-05-01T19:39:45.087Z,99912.34
2023-05-01T19:42:12.291Z,99907.84
2023-05-01T19:44:40.124Z,99911.22
2023-05-01T19:47:07.255Z,99909.25
2023-05-01T19:49:34.750Z,99910.91
2023-05-01T19:52:01.958Z,99910.78
2023-05-01T19:54:29.172Z,99915.94
2023-05-01T19:56:57.064Z,99918.41
2023-05-01T19:59:24.411Z,99913.84
2023-05-01T20:01:51.731Z,99923.44
2023-05-01T20:04:19.247Z,99920.69
2023-05-01T20:06:46.910Z,99921.50
2023-05-01T20:09:14.169Z,99923.22
2023-05-01T20:11:41.394Z,99930.13
2023-05-01T20:14:08.518Z,99929.94
2023-05-01T20:16:36.048Z,99933.22
2023-05-01T20:19:03.286Z,99934.78
2023-05-01T20:21:31.073Z,99946.84
2023-05-01T20:23:58.478Z,99937.03
2023-05-01T20:26:25.737Z,99935.19
2023-05-01T20:28:53.569Z,99942.28
2023-05-01T20:31:21.290Z,99943.94
2023-05-01T20:33:48.526Z,99937.88
2023-05-01T20:36:17.191Z,99936.84
2023-05-01T20:38:45.478Z,99947.59
2023-05-01T20:41:12.847Z,99943.03
2023-05-01T20:43:40.121Z,99952.00
2023-05-01T20:46:07.292Z,99949.25
2023-05-01T20:48:34.619Z,99953.66
2023-05-01T20:51:01.733Z,99944.72
2023-05-01T20:53:28.869Z,99949.84
2023-05-01T20:55:56.039Z,99945.53
2023-05-01T20:58:23.165Z,99948.03
2023-05-01T21:00:53.341Z,99944.19
2023-05-01T21:03:20.687Z,99947.44
2023-05-01T21:05:48.102Z,99965.47
2023-05-01T21:08:15.666Z,99961.66
2023-05-01T21:10:42.866Z,99953.72
2023-05-01T21:13:10.129Z,99959.78
2023-05-01T21:15:43.807Z,99963.38
2023-05-01T21:18:14.583Z,99958.00
2023-05-01T21:20:45.398Z,99958.78
2023-05-01T21:23:17.759Z,99952.69
2023-05-01T21:25:44.999Z,99952.75
2023-05-01T21:28:13.934Z,99957.81
2023-05-01T21:30:41.419Z,99963.66
2023-05-01T21:33:14.370Z,99969.47
2023-05-01T21:35:44.790Z,99966.56
2023-05-01T21:38:12.552Z,99963.97
2023-05-01T21:40:46.080Z,99971.16
2023-05-01T21:43:13.394Z,99966.56
2023-05-01T21:45:44.571Z,99966.72
2023-05-01T21:48:16.000Z,99960.53
2023-05-01T21:50:43.260Z,99950.03
2023-05-01T21:53:10.508Z,99949.06
2023-05-01T21:55:38.733Z,99948.09
2023-05-01T21:58:05.946Z,99946.31
2023-05-01T22:00:33.654Z,99941.78
2023-05-01T22:03:05.876Z,99941.78
2023-05-01T22:05:34.427Z,99938.19
2023-05-01T22:08:01.679Z,99931.78
2023-05-01T22:10:29.637Z,99931.47
2023-05-01T22:12:56.824Z,99930.47
2023-05-01T22:15:24.031Z,99933.91
2023-05-01T22:17:51.356Z,99928.72
2023-05-01T22:20:18.851Z,99927.13
2023-05-01T22:22:45.977Z,99929.63
2023-05-01T22:25:13.195Z,99937.75
2023-05-01T22:27:40.726Z,99937.88
2023-05-01T22:30:08.589Z,99940.69
2023-05-01T22:32:35.993Z,99935.53
2023-05-01T22:35:03.898Z,99947.94
2023-05-01T22:37:31.292Z,99950.53
2023-05-01T22:39:58.715Z,99945.50
2023-05-01T22:42:26.126Z,99937.22
2023-05-01T22:44:53.367Z,99921.34
2023-05-01T22:47:20.628Z,99923.91
2023-05-01T22:49:47.917Z,99919.41
2023-05-01T22:52:15.373Z,99919.34
2023-05-01T22:54:42.526Z,99922.81
2023-05-01T22:57:10.199Z,99923.78
2023-05-01T22:59:39.506Z,99925.28
2023-05-01T23:02:06.866Z,99916.59
2023-05-01T23:04:34.079Z,99925.28
2023-05-01T23:07:01.211Z,99921.03
2023-05-01T23:09:32.075Z,99924.19
2023-05-01T23:11:59.313Z,99935.38
2023-05-01T23:14:26.536Z,99936.75
2023-05-01T23:16:56.283Z,99929.97
2023-05-01T23:19:25.103Z,99925.44
2023-05-01T23:22:12.449Z,99914.03
2023-05-01T23:24:49.233Z,99920.75
2023-05-01T23:27:19.116Z,99925.81
2023-05-01T23:29:58.705Z,99932.66
2023-05-01T23:32:30.004Z,99934.28
2023-05-01T23:35:23.659Z,99920.81
2023-05-01T23:37:52.744Z,99932.31
2023-05-01T23:40:20.162Z,99919.78
2023-05-01T23:42:48.012Z,99908.25
2023-05-01T23:45:16.970Z,99912.56
2023-05-01T23:47:44.175Z,99918.94
2023-05-01T23:50:11.617Z,99921.44
2023-05-01T23:52:38.830Z,99911.91
2023-05-01T23:55:06.255Z,99907.53
2023-05-01T23:57:33.367Z,99908.41
